createdAt,value
2018-05-15T00:01:44.064Z,31.57
2018-05-15T00:04:11.640Z,24.13
2018-05-15T00:06:39.180Z,35.23
2018-05-15T00:09:07.541Z,41.33
2018-05-15T00:11:35.062Z,40.40
2018-05-15T00:14:02.612Z,42.13
2018-05-15T00:16:30.160Z,40.83
2018-05-15T00:18:58.143Z,37.27
2018-05-15T00:21:25.699Z,34.63
2018-05-15T00:23:53.245Z,32.50
2018-05-15T00:26:21.561Z,29.53
2018-05-15T00:28:49.103Z,32.03
2018-05-15T00:31:16.647Z,33.00
2018-05-15T00:33:44.227Z,33.33
2018-05-15T00:36:11.779Z,31.73
2018-05-15T00:38:39.343Z,27.50
2018-05-15T00:41:06.892Z,29.53
2018-05-15T00:43:34.451Z,29.20
2018-05-15T00:46:01.993Z,29.40
2018-05-15T00:48:29.522Z,28.57
2018-05-15T00:50:57.071Z,23.87
2018-05-15T00:53:25.386Z,26.23
2018-05-15T00:55:52.933Z,26.30
2018-05-15T00:58:20.492Z,24.77
2018-05-15T01:00:48.023Z,21.63
2018-05-15T01:03:15.581Z,29.80
2018-05-15T01:05:43.123Z,28.70
2018-05-15T01:08:10.747Z,29.57
2018-05-15T01:10:38.286Z,30.30
2018-05-15T01:13:05.836Z,27.07
2018-05-15T01:15:33.360Z,30.83
2018-05-15T01:18:00.901Z,27.67
2018-05-15T01:20:28.459Z,27.13
2018-05-15T01:22:56.003Z,27.73
2018-05-15T01:25:23.536Z,30.20
2018-05-15T01:27:51.860Z,26.20
2018-05-15T01:30:19.394Z,21.50
2018-05-15T01:32:46.968Z,26.40
2018-05-15T01:35:14.495Z,25.10
2018-05-15T01:37:42.023Z,26.07
2018-05-15T01:46:14.978Z,23.97
2018-05-15T01:48:43.300Z,22.93
2018-05-15T01:51:10.861Z,21.80
2018-05-15T01:53:38.399Z,21.43
2018-05-15T01:56:05.942Z,20.10
2018-05-15T01:58:33.487Z,22.33
2018-05-15T02:01:01.024Z,22.00
2018-05-15T02:03:28.575Z,21.67
2018-05-15T02:05:56.881Z,21.53
2018-05-15T02:08:24.432Z,20.40
2018-05-15T02:10:52.007Z,22.47
2018-05-15T02:13:19.565Z,20.50
2018-05-15T02:15:47.092Z,19.70
2018-05-15T02:18:14.656Z,19.10
2018-05-15T02:20:42.204Z,19.00
2018-05-15T02:23:10.520Z,19.07
2018-05-15T02:25:38.050Z,22.00
2018-05-15T02:28:05.592Z,21.20
2018-05-15T02:30:33.906Z,20.40
2018-05-15T02:33:01.459Z,20.23
2018-05-15T02:35:28.993Z,19.93
2018-05-15T02:37:56.583Z,17.90
2018-05-15T02:40:24.137Z,17.20
2018-05-15T02:42:51.697Z,18.47
2018-05-15T02:45:19.265Z,18.87
2018-05-15T02:47:46.796Z,19.97
2018-05-15T02:50:14.357Z,19.30
2018-05-15T02:52:41.927Z,19.33
2018-05-15T02:55:09.468Z,18.40
2018-05-15T02:57:37.010Z,19.10
2018-05-15T03:00:05.341Z,21.00
2018-05-15T03:02:32.867Z,21.07
2018-05-15T03:05:00.421Z,24.20
2018-05-15T03:07:27.943Z,23.40
2018-05-15T03:09:55.487Z,27.27
2018-05-15T03:12:23.024Z,23.80
2018-05-15T03:14:50.567Z,22.23
2018-05-15T03:17:18.092Z,20.93
2018-05-15T03:19:46.415Z,19.47
2018-05-15T03:22:13.950Z,19.30
2018-05-15T03:24:41.507Z,20.03
2018-05-15T03:27:09.405Z,20.73
2018-05-15T03:29:37.701Z,19.83
2018-05-15T03:32:05.332Z,17.43
2018-05-15T03:34:32.875Z,18.70
2018-05-15T03:37:00.429Z,17.53
2018-05-15T03:39:27.985Z,18.73
2018-05-15T03:41:55.520Z,18.63
2018-05-15T03:44:23.828Z,18.10
2018-05-15T03:46:51.347Z,20.30
2018-05-15T03:49:18.908Z,19.07
2018-05-15T03:51:47.218Z,17.33
2018-05-15T03:54:14.796Z,18.43
2018-05-15T03:56:42.473Z,21.10
2018-05-15T03:59:10.917Z,20.90
2018-05-15T04:01:50.447Z,17.37
2018-05-15T04:04:35.163Z,18.13
2018-05-15T04:07:14.766Z,18.43
2018-05-15T04:09:42.327Z,18.97
2018-05-15T04:12:09.850Z,20.27
2018-05-15T04:14:37.383Z,19.80
2018-05-15T04:17:04.913Z,20.83
2018-05-15T04:19:36.048Z,21.77
2018-05-15T04:22:03.608Z,20.40
2018-05-15T04:24:31.163Z,21.57
2018-05-15T04:27:02.240Z,20.47
2018-05-15T04:29:29.785Z,18.37
2018-05-15T04:31:57.323Z,19.80
2018-05-15T04:34:25.204Z,20.03
2018-05-15T04:36:52.735Z,18.73
2018-05-15T04:39:20.294Z,16.57
2018-05-15T04:41:48.614Z,18.33
2018-05-15T04:44:16.151Z,17.70
2018-05-15T04:46:43.701Z,18.50
2018-05-15T04:49:11.248Z,17.97
2018-05-15T04:51:38.769Z,18.97
2018-05-15T04:54:06.295Z,21.00
2018-05-15T04:56:33.849Z,17.93
2018-05-15T04:59:01.403Z,18.67
2018-05-15T05:01:28.966Z,22.03
2018-05-15T05:03:56.515Z,18.03
2018-05-15T05:06:24.051Z,13.23
2018-05-15T05:08:51.590Z,11.40
2018-05-15T05:11:19.920Z,12.17
2018-05-15T05:13:47.590Z,12.23
2018-05-15T05:16:15.158Z,12.47
2018-05-15T05:18:42.738Z,13.43
2018-05-15T05:21:11.062Z,13.10
2018-05-15T05:23:38.612Z,13.93
2018-05-15T05:26:06.177Z,11.97
2018-05-15T05:28:33.704Z,11.27
2018-05-15T05:31:01.322Z,9.30
2018-05-15T05:33:28.889Z,8.30
2018-05-15T05:35:56.464Z,8.50
2018-05-15T05:38:23.984Z,8.30
2018-05-15T05:40:51.517Z,9.73
2018-05-15T05:43:19.327Z,7.47
2018-05-15T05:45:46.867Z,7.40
2018-05-15T05:48:14.436Z,7.70
2018-05-15T05:50:42.013Z,7.83
2018-05-15T05:53:09.564Z,6.80
2018-05-15T05:55:37.112Z,6.57
2018-05-15T05:58:04.679Z,6.77
2018-05-15T06:00:32.211Z,5.90
2018-05-15T06:03:00.499Z,5.93
2018-05-15T06:05:28.072Z,6.40
2018-05-15T06:07:55.682Z,5.03
2018-05-15T06:10:23.218Z,4.90
2018-05-15T06:12:50.779Z,4.87
2018-05-15T06:15:19.096Z,4.87
2018-05-15T06:17:46.627Z,4.07
2018-05-15T06:20:14.925Z,4.47
2018-05-15T06:22:42.454Z,4.43
2018-05-15T06:25:09.996Z,4.63
2018-05-15T06:27:37.615Z,4.50
2018-05-15T06:30:05.097Z,4.50
2018-05-15T06:32:32.641Z,4.70
2018-05-15T06:35:00.188Z,4.40
2018-05-15T06:37:27.747Z,4.63
2018-05-15T06:39:55.295Z,4.93
2018-05-15T06:42:22.826Z,5.10
2018-05-15T06:44:51.240Z,4.90
2018-05-15T06:47:18.673Z,4.63
2018-05-15T06:49:46.216Z,4.80
2018-05-15T06:52:13.735Z,4.90
2018-05-15T06:54:41.275Z,4.77
2018-05-15T06:57:08.898Z,5.03
2018-05-15T06:59:37.199Z,4.27
2018-05-15T07:02:04.731Z,4.93
2018-05-15T07:04:32.273Z,4.83
2018-05-15T07:07:00.567Z,5.00
2018-05-15T07:09:28.871Z,4.67
2018-05-15T07:11:56.404Z,4.93
2018-05-15T07:14:23.935Z,4.70
2018-05-15T07:16:51.472Z,4.93
2018-05-15T07:19:19.015Z,4.60
2018-05-15T07:21:46.547Z,4.70
2018-05-15T07:24:14.066Z,4.27
2018-05-15T07:26:41.595Z,3.90
2018-05-15T07:29:09.143Z,4.47
2018-05-15T07:31:36.681Z,4.20
2018-05-15T07:34:04.199Z,4.30
2018-05-15T07:36:31.736Z,3.60
2018-05-15T07:38:59.255Z,3.80
2018-05-15T07:41:26.790Z,3.90
2018-05-15T07:43:55.083Z,3.90
2018-05-15T07:46:22.635Z,3.77
2018-05-15T07:48:50.164Z,4.00
2018-05-15T07:51:17.716Z,3.97
2018-05-15T07:53:45.300Z,4.13
2018-05-15T07:56:12.791Z,4.40
2018-05-15T07:58:40.319Z,4.33
2018-05-15T08:01:08.610Z,4.20
2018-05-15T08:03:36.144Z,3.80
2018-05-15T08:06:05.590Z,3.80
2018-05-15T08:08:33.124Z,3.80
2018-05-15T08:11:00.666Z,3.77
2018-05-15T08:13:28.979Z,4.10
2018-05-15T08:15:56.515Z,4.13
2018-05-15T08:18:24.030Z,4.00
2018-05-15T08:20:51.572Z,4.03
2018-05-15T08:23:19.083Z,4.33
2018-05-15T08:25:46.615Z,3.90
2018-05-15T08:28:14.150Z,4.00
2018-05-15T08:30:41.686Z,4.03
2018-05-15T08:33:09.227Z,4.07
2018-05-15T08:35:36.783Z,3.90
2018-05-15T08:38:04.302Z,3.93
2018-05-15T08:40:31.824Z,4.23
2018-05-15T08:42:59.344Z,4.30
2018-05-15T08:45:27.680Z,4.00
2018-05-15T08:47:55.145Z,4.30
2018-05-15T08:50:22.708Z,3.97
2018-05-15T08:52:50.419Z,4.50
2018-05-15T08:55:17.947Z,4.20
2018-05-15T08:57:46.257Z,4.30
2018-05-15T09:00:13.851Z,4.77
2018-05-15T09:02:41.403Z,4.80
2018-05-15T09:05:09.071Z,4.47
2018-05-15T09:07:36.595Z,4.23
2018-05-15T09:10:04.140Z,4.37
2018-05-15T09:12:31.655Z,4.77
2018-05-15T09:14:59.215Z,4.30
2018-05-15T09:17:27.723Z,4.27
2018-05-15T09:19:56.035Z,4.20
2018-05-15T09:22:23.555Z,4.30
2018-05-15T09:24:51.856Z,4.33
2018-05-15T09:27:26.044Z,4.73
2018-05-15T09:29:54.349Z,3.83
2018-05-15T09:32:21.879Z,4.10
2018-05-15T09:34:50.186Z,4.20
2018-05-15T09:37:17.709Z,4.57
2018-05-15T09:39:45.998Z,4.40
2018-05-15T09:42:13.539Z,4.73
2018-05-15T09:44:41.857Z,3.90
2018-05-15T09:47:09.457Z,4.77
2018-05-15T09:49:36.990Z,4.67
2018-05-15T09:52:04.542Z,4.37
2018-05-15T09:54:32.071Z,4.67
2018-05-15T09:56:59.602Z,4.83
2018-05-15T09:59:27.126Z,4.20
2018-05-15T10:01:54.665Z,4.73
2018-05-15T10:04:22.191Z,4.80
2018-05-15T10:06:49.727Z,4.67
2018-05-15T10:09:17.257Z,4.80
2018-05-15T10:11:44.782Z,4.03
2018-05-15T10:14:12.321Z,4.70
2018-05-15T10:16:39.855Z,3.80
2018-05-15T10:19:07.414Z,3.70
2018-05-15T10:21:34.948Z,4.07
2018-05-15T10:24:02.488Z,4.13
2018-05-15T10:26:30.024Z,3.93
2018-05-15T10:28:58.398Z,3.93
2018-05-15T10:31:26.696Z,3.90
2018-05-15T10:33:54.227Z,4.07
2018-05-15T10:36:22.532Z,3.70
2018-05-15T10:38:50.046Z,3.70
2018-05-15T10:41:17.567Z,4.00
2018-05-15T10:43:45.096Z,3.73
2018-05-15T10:46:12.624Z,3.60
2018-05-15T10:48:40.141Z,3.83
2018-05-15T10:51:16.052Z,3.93
2018-05-15T10:53:44.357Z,4.00
2018-05-15T10:56:11.921Z,4.50
2018-05-15T10:58:39.451Z,4.40
2018-05-15T11:01:08.595Z,3.93
2018-05-15T11:03:36.115Z,4.20
2018-05-15T11:06:04.248Z,3.70
2018-05-15T11:08:31.765Z,4.00
2018-05-15T11:10:59.840Z,4.30
2018-05-15T11:13:27.367Z,4.10
2018-05-15T11:15:54.901Z,3.60
2018-05-15T11:21:33.471Z,4.03
2018-05-15T11:27:02.344Z,4.73
2018-05-15T11:29:29.879Z,4.27
2018-05-15T11:31:57.410Z,4.13
2018-05-15T11:34:24.944Z,4.67
2018-05-15T11:36:52.500Z,4.00
2018-05-15T11:39:20.794Z,4.13
2018-05-15T11:41:52.923Z,3.93
2018-05-15T11:44:20.419Z,4.27
2018-05-15T11:46:47.955Z,4.43
2018-05-15T11:49:16.189Z,3.60
2018-05-15T11:51:44.654Z,4.23
2018-05-15T11:54:11.387Z,3.80
2018-05-15T11:56:38.923Z,3.97
2018-05-15T11:59:06.490Z,3.67
2018-05-15T12:01:34.017Z,3.80
2018-05-15T12:04:02.356Z,4.60
2018-05-15T12:06:29.866Z,4.10
2018-05-15T12:08:57.583Z,4.50
2018-05-15T12:11:25.830Z,3.70
2018-05-15T12:13:53.367Z,3.33
2018-05-15T12:16:20.906Z,3.37
2018-05-15T12:18:49.200Z,3.73
2018-05-15T12:21:16.732Z,3.30
2018-05-15T12:23:44.255Z,3.30
2018-05-15T12:26:13.841Z,2.93
2018-05-15T12:28:58.900Z,3.07
2018-05-15T12:31:31.239Z,2.40
2018-05-15T12:33:59.553Z,2.60
2018-05-15T12:36:28.012Z,2.50
2018-05-15T12:38:56.308Z,2.90
2018-05-15T12:41:23.976Z,3.60
2018-05-15T12:43:51.408Z,3.90
2018-05-15T12:46:18.927Z,3.43
2018-05-15T12:48:46.569Z,3.30
2018-05-15T12:51:14.020Z,3.13
2018-05-15T12:53:41.553Z,3.10
2018-05-15T12:56:09.069Z,3.10
2018-05-15T12:58:36.610Z,3.40
2018-05-15T13:01:04.150Z,3.57
2018-05-15T13:03:31.706Z,4.40
2018-05-15T13:05:59.219Z,3.43
2018-05-15T13:08:27.530Z,3.10
2018-05-15T13:10:55.064Z,3.73
2018-05-15T13:13:23.419Z,3.63
2018-05-15T13:15:51.712Z,3.97
2018-05-15T13:18:20.019Z,3.93
2018-05-15T13:20:47.547Z,3.40
2018-05-15T13:23:15.861Z,3.57
2018-05-15T13:25:43.400Z,3.50
2018-05-15T13:28:10.927Z,3.10
2018-05-15T13:30:39.233Z,3.10
2018-05-15T13:33:06.759Z,2.90
2018-05-15T13:35:35.068Z,3.30
2018-05-15T13:38:02.672Z,2.90
2018-05-15T13:40:30.258Z,3.57
2018-05-15T13:42:57.721Z,3.33
2018-05-15T13:45:25.265Z,3.37
2018-05-15T13:47:52.803Z,3.30
2018-05-15T13:50:20.343Z,3.53
2018-05-15T13:52:47.864Z,3.43
2018-05-15T13:55:15.403Z,4.00
2018-05-15T13:57:42.924Z,3.77
2018-05-15T14:00:10.464Z,3.80
2018-05-15T14:02:37.991Z,3.40
2018-05-15T14:05:06.290Z,3.37
2018-05-15T14:07:33.823Z,3.30
2018-05-15T14:10:02.146Z,3.60
2018-05-15T14:12:29.768Z,3.90
2018-05-15T14:14:57.226Z,3.80
2018-05-15T14:17:24.765Z,3.50
2018-05-15T14:19:53.076Z,3.50
2018-05-15T14:22:20.603Z,3.63
2018-05-15T14:24:48.236Z,3.80
2018-05-15T14:27:15.656Z,3.63
2018-05-15T14:29:43.184Z,3.73
2018-05-15T14:32:11.471Z,3.30
2018-05-15T14:34:39.006Z,3.50
2018-05-15T14:37:06.525Z,3.23
2018-05-15T14:39:34.067Z,3.43
2018-05-15T14:42:13.574Z,3.30
2018-05-15T14:44:41.882Z,3.90
2018-05-15T14:47:09.415Z,3.43
2018-05-15T14:49:36.947Z,3.67
2018-05-15T14:52:04.480Z,4.23
2018-05-15T14:54:32.012Z,3.93
2018-05-15T14:56:59.560Z,4.17
2018-05-15T14:59:27.083Z,4.27
2018-05-15T15:01:54.626Z,3.67
2018-05-15T15:04:22.161Z,3.67
2018-05-15T15:06:49.774Z,3.60
2018-05-15T15:09:18.174Z,4.00
2018-05-15T15:11:45.728Z,3.60
2018-05-15T15:14:13.258Z,3.70
2018-05-15T15:16:40.796Z,3.63
2018-05-15T15:19:08.349Z,3.07
2018-05-15T15:21:35.887Z,3.57
2018-05-15T15:24:03.435Z,3.50
2018-05-15T15:26:30.963Z,3.53
2018-05-15T15:28:58.682Z,3.63
2018-05-15T15:31:26.288Z,3.30
2018-05-15T15:33:54.559Z,3.30
2018-05-15T15:36:22.860Z,3.47
2018-05-15T15:38:50.404Z,3.50
2018-05-15T15:41:17.936Z,3.33
2018-05-15T15:43:45.475Z,3.27
2018-05-15T15:46:13.120Z,3.13
2018-05-15T15:48:40.652Z,3.30
2018-05-15T15:51:08.189Z,3.33
2018-05-15T15:53:36.468Z,3.30
2018-05-15T15:56:04.052Z,3.37
2018-05-15T15:58:31.648Z,3.47
2018-05-15T16:00:59.196Z,3.40
2018-05-15T16:03:26.741Z,3.33
2018-05-15T16:05:54.311Z,3.53
2018-05-15T16:08:25.203Z,3.30
2018-05-15T16:10:52.776Z,3.23
2018-05-15T16:13:22.263Z,3.67
2018-05-15T16:15:53.417Z,3.57
2018-05-15T16:18:33.701Z,3.40
2018-05-15T16:21:01.247Z,3.23
2018-05-15T16:23:28.784Z,3.40
2018-05-15T16:25:56.326Z,3.20
2018-05-15T16:28:24.629Z,3.97
2018-05-15T16:30:52.199Z,3.53
2018-05-15T16:33:19.809Z,3.50
2018-05-15T16:35:53.089Z,3.17
2018-05-15T16:38:20.652Z,3.37
2018-05-15T16:40:48.264Z,3.67
2018-05-15T16:43:15.822Z,3.90
2018-05-15T16:45:43.331Z,3.83
2018-05-15T16:48:10.864Z,3.43
2018-05-15T16:50:38.413Z,3.73
2018-05-15T16:53:06.034Z,3.50
2018-05-15T16:55:34.338Z,3.53
2018-05-15T16:58:13.096Z,3.87
2018-05-15T17:00:40.627Z,3.97
2018-05-15T17:03:08.159Z,4.17
2018-05-15T17:05:35.681Z,3.20
2018-05-15T17:08:06.383Z,3.60
2018-05-15T17:10:34.087Z,3.70
2018-05-15T17:13:04.357Z,3.30
2018-05-15T17:15:31.879Z,3.70
2018-05-15T17:18:00.194Z,3.10
2018-05-15T17:20:27.743Z,3.20
2018-05-15T17:22:55.287Z,3.17
2018-05-15T17:25:23.212Z,3.13
2018-05-15T17:27:51.546Z,3.20
2018-05-15T17:30:19.111Z,3.03
2018-05-15T17:32:46.693Z,3.13
2018-05-15T17:35:14.731Z,3.20
2018-05-15T17:37:42.322Z,3.33
2018-05-15T17:40:09.854Z,3.47
2018-05-15T17:42:37.412Z,3.30
2018-05-15T17:45:04.949Z,3.23
2018-05-15T17:47:33.523Z,3.20
2018-05-15T17:50:01.847Z,3.40
2018-05-15T17:52:29.389Z,3.27
2018-05-15T17:54:56.904Z,3.60
2018-05-15T17:57:25.220Z,2.93
2018-05-15T17:59:52.798Z,3.03
2018-05-15T18:02:21.056Z,3.10
2018-05-15T18:04:48.619Z,2.93
2018-05-15T18:07:16.997Z,3.00
2018-05-15T18:09:44.514Z,3.50
2018-05-15T18:12:12.880Z,3.20
2018-05-15T18:14:40.420Z,3.30
2018-05-15T18:17:08.065Z,3.33
2018-05-15T18:19:35.673Z,3.50
2018-05-15T18:22:03.955Z,3.60
2018-05-15T18:24:32.375Z,3.50
2018-05-15T18:26:59.879Z,3.63
2018-05-15T18:29:28.322Z,3.30
2018-05-15T18:31:55.888Z,3.30
2018-05-15T18:34:23.419Z,3.30
2018-05-15T18:36:50.955Z,3.57
2018-05-15T18:39:18.494Z,3.53
2018-05-15T18:41:46.015Z,3.30
2018-05-15T18:44:13.564Z,3.50
2018-05-15T18:46:41.108Z,3.80
2018-05-15T18:49:08.639Z,3.10
2018-05-15T18:51:36.252Z,3.50
2018-05-15T18:54:03.861Z,3.67
2018-05-15T18:56:31.390Z,3.70
2018-05-15T18:58:59.846Z,3.73
2018-05-15T19:01:27.392Z,3.57
2018-05-15T19:03:54.958Z,3.70
2018-05-15T19:06:22.499Z,4.10
2018-05-15T19:08:50.783Z,3.93
2018-05-15T19:11:19.172Z,3.43
2018-05-15T19:13:46.772Z,3.83
2018-05-15T19:16:16.255Z,4.20
2018-05-15T19:18:44.707Z,3.63
2018-05-15T19:21:12.239Z,4.00
2018-05-15T19:23:39.843Z,4.00
2018-05-15T19:26:07.463Z,3.93
2018-05-15T19:28:35.922Z,3.93
2018-05-15T19:31:04.225Z,3.50
2018-05-15T19:33:39.458Z,3.90
2018-05-15T19:36:09.803Z,4.00
2018-05-15T19:38:38.253Z,4.07
2018-05-15T19:41:06.558Z,3.73
2018-05-15T19:43:34.073Z,4.00
2018-05-15T19:46:06.231Z,3.90
2018-05-15T19:48:33.799Z,3.63
2018-05-15T19:51:02.197Z,4.33
2018-05-15T19:53:30.650Z,4.20
2018-05-15T19:55:58.183Z,3.70
2018-05-15T19:58:25.949Z,3.90
2018-05-15T20:00:53.626Z,4.30
2018-05-15T20:03:21.184Z,4.37
2018-05-15T20:05:49.516Z,4.00
2018-05-15T20:08:17.090Z,3.83
2018-05-15T20:10:44.664Z,4.50
2018-05-15T20:13:12.195Z,4.50
2018-05-15T20:15:40.019Z,4.20
2018-05-15T20:18:07.551Z,4.00
2018-05-15T20:20:35.945Z,4.20
2018-05-15T20:23:03.475Z,4.93
2018-05-15T20:25:41.625Z,4.43
2018-05-15T20:28:09.231Z,4.80
2018-05-15T20:30:36.812Z,4.67
2018-05-15T20:33:04.352Z,5.00
2018-05-15T20:35:31.904Z,4.43
2018-05-15T20:37:59.443Z,4.50
2018-05-15T20:40:26.992Z,4.50
2018-05-15T20:42:54.522Z,4.80
2018-05-15T20:45:22.039Z,4.37
2018-05-15T20:47:49.581Z,5.20
2018-05-15T20:50:17.127Z,5.27
2018-05-15T20:52:44.698Z,4.77
2018-05-15T20:55:12.341Z,5.00
2018-05-15T20:57:39.961Z,5.57
2018-05-15T21:00:07.608Z,4.37
2018-05-15T21:02:35.137Z,4.37
2018-05-15T21:05:02.763Z,4.07
2018-05-15T21:07:31.128Z,3.67
2018-05-15T21:09:58.842Z,4.00
2018-05-15T21:12:26.432Z,4.27
2018-05-15T21:14:53.980Z,4.43
2018-05-15T21:17:23.411Z,3.77
2018-05-15T21:19:50.944Z,4.47
2018-05-15T21:22:18.475Z,4.50
2018-05-15T21:24:46.033Z,4.40
2018-05-15T21:27:13.576Z,4.50
2018-05-15T21:29:43.075Z,4.13
2018-05-15T21:32:11.645Z,4.17
2018-05-15T21:34:39.195Z,4.50
2018-05-15T21:37:06.768Z,4.57
2018-05-15T21:39:34.328Z,4.53
2018-05-15T21:42:01.865Z,4.13
2018-05-15T21:44:29.392Z,4.30
2018-05-15T21:46:56.920Z,4.00
2018-05-15T21:49:24.502Z,4.60
2018-05-15T21:51:52.083Z,4.70
2018-05-15T21:54:19.858Z,4.60
2018-05-15T21:56:47.407Z,4.83
2018-05-15T21:59:14.949Z,4.87
2018-05-15T22:01:42.532Z,4.50
2018-05-15T22:04:10.072Z,4.67
2018-05-15T22:06:37.645Z,4.83
2018-05-15T22:09:05.192Z,4.50
2018-05-15T22:11:44.737Z,4.73
2018-05-15T22:14:24.388Z,4.73
2018-05-15T22:17:04.029Z,5.13
2018-05-15T22:19:43.447Z,5.27
2018-05-15T22:22:14.460Z,5.50
2018-05-15T22:24:42.033Z,5.13
2018-05-15T22:27:09.670Z,5.07
2018-05-15T22:29:37.228Z,5.40
2018-05-15T22:32:04.752Z,5.23
2018-05-15T22:34:32.309Z,5.50
2018-05-15T22:36:59.868Z,5.53
2018-05-15T22:39:27.440Z,4.93
2018-05-15T22:41:55.731Z,5.10
2018-05-15T22:44:23.270Z,5.50
2018-05-15T22:46:51.735Z,5.10
2018-05-15T22:49:20.098Z,5.80
2018-05-15T22:51:47.686Z,5.37
2018-05-15T22:54:16.001Z,5.80
2018-05-15T22:56:43.524Z,5.23
2018-05-15T22:59:11.869Z,5.60
2018-05-15T23:01:39.424Z,5.73
2018-05-15T23:04:06.959Z,5.37
2018-05-15T23:06:34.578Z,5.30
2018-05-15T23:09:02.792Z,5.63
2018-05-15T23:11:30.353Z,5.50
2018-05-15T23:13:58.670Z,5.30
2018-05-15T23:16:26.357Z,5.50
2018-05-15T23:18:54.754Z,5.23
2018-05-15T23:21:22.291Z,5.40
2018-05-15T23:23:50.586Z,5.43
2018-05-15T23:26:18.161Z,5.33
2018-05-15T23:28:45.685Z,5.70
2018-05-15T23:31:14.039Z,6.20
2018-05-15T23:33:41.615Z,6.00
2018-05-15T23:36:09.933Z,6.13
2018-05-15T23:38:37.460Z,6.43
2018-05-15T23:41:05.028Z,6.33
2018-05-15T23:43:32.599Z,6.53
2018-05-15T23:46:00.132Z,6.40
2018-05-15T23:48:28.448Z,7.10
2018-05-15T23:50:58.940Z,7.10
2018-05-15T23:53:27.311Z,6.60
2018-05-15T23:55:54.853Z,7.00
2018-05-15T23:58:22.374Z,7.53
